createdAt,value
2022-08-19T00:02:06.255Z,101730.06
2022-08-19T00:04:37.686Z,101747.66
2022-08-19T00:07:07.947Z,101756.72
2022-08-19T00:09:38.423Z,101770.56
2022-08-19T00:12:07.819Z,101771.31
2022-08-19T00:14:37.164Z,101771.31
2022-08-19T00:17:09.103Z,101774.31
2022-08-19T00:19:39.226Z,101766.94
2022-08-19T00:22:09.687Z,101761.59
2022-08-19T00:24:42.050Z,101764.28
2022-08-19T00:27:25.688Z,101759.44
2022-08-19T00:29:55.927Z,101752.66
2022-08-19T00:32:25.512Z,101753.28
2022-08-19T00:34:56.181Z,101751.06
2022-08-19T00:37:27.863Z,101739.28
2022-08-19T00:39:58.214Z,101723.94
2022-08-19T00:42:29.364Z,101712.00
2022-08-19T00:44:58.217Z,101699.91
2022-08-19T00:47:26.889Z,101693.00
2022-08-19T00:49:59.270Z,101707.63
2022-08-19T00:52:31.798Z,101722.50
2022-08-19T00:55:03.358Z,101723.13
2022-08-19T00:57:37.008Z,101726.91
2022-08-19T01:00:12.467Z,101730.81
2022-08-19T01:02:42.348Z,101735.38
2022-08-19T01:05:15.976Z,101730.97
2022-08-19T01:07:45.900Z,101730.31
2022-08-19T01:10:20.035Z,101722.50
2022-08-19T01:12:50.102Z,101727.53
2022-08-19T01:15:21.982Z,101714.66
2022-08-19T01:17:54.007Z,101714.66
2022-08-19T01:20:26.945Z,101711.38
2022-08-19T01:23:00.466Z,101710.88
2022-08-19T01:25:34.174Z,101701.66
2022-08-19T01:28:10.544Z,101701.50
2022-08-19T01:30:39.960Z,101695.53
2022-08-19T01:33:13.236Z,101693.03
2022-08-19T01:35:42.696Z,101688.22
2022-08-19T01:38:24.536Z,101690.88
2022-08-19T01:40:53.841Z,101693.06
2022-08-19T01:43:22.614Z,101689.59
2022-08-19T01:45:51.967Z,101690.41
2022-08-19T01:48:21.184Z,101683.63
2022-08-19T01:50:49.857Z,101678.00
2022-08-19T01:53:21.227Z,101672.16
2022-08-19T01:55:52.802Z,101661.34
2022-08-19T01:58:26.480Z,101644.38
2022-08-19T02:00:59.805Z,101645.78
2022-08-19T02:03:30.007Z,101652.56
2022-08-19T02:06:00.554Z,101650.53
2022-08-19T02:08:32.058Z,101656.97
2022-08-19T02:11:00.976Z,101653.53
2022-08-19T02:13:29.694Z,101679.56
2022-08-19T02:15:58.889Z,101671.59
2022-08-19T02:18:29.232Z,101679.91
2022-08-19T02:20:57.708Z,101668.63
2022-08-19T02:23:26.306Z,101667.06
2022-08-19T02:25:56.908Z,101655.47
2022-08-19T02:28:25.460Z,101660.94
2022-08-19T02:30:54.185Z,101647.63
2022-08-19T02:33:22.714Z,101647.00
2022-08-19T02:35:52.057Z,101653.91
2022-08-19T02:38:28.976Z,101653.75
2022-08-19T02:41:01.481Z,101659.25
2022-08-19T02:43:34.502Z,101664.88
2022-08-19T02:46:04.474Z,101669.91
2022-08-19T02:48:33.930Z,101674.09
2022-08-19T02:51:02.975Z,101681.16
2022-08-19T02:53:31.606Z,101675.38
2022-08-19T02:56:01.765Z,101674.91
2022-08-19T02:58:31.123Z,101676.50
2022-08-19T03:01:01.371Z,101675.38
2022-08-19T03:03:30.624Z,101675.84
2022-08-19T03:06:08.529Z,101678.03
2022-08-19T03:08:38.060Z,101667.06
2022-08-19T03:11:08.191Z,101663.75
2022-08-19T03:13:39.242Z,101683.03
2022-08-19T03:16:08.266Z,101672.38
2022-08-19T03:18:37.024Z,101682.41
2022-08-19T03:21:07.722Z,101691.97
2022-08-19T03:23:41.113Z,101697.47
2022-08-19T03:26:16.832Z,101684.56
2022-08-19T03:28:49.429Z,101664.06
2022-08-19T03:31:44.564Z,101657.47
2022-08-19T03:34:12.665Z,101648.53
2022-08-19T03:36:42.259Z,101637.38
2022-08-19T03:39:12.109Z,101616.53
2022-08-19T03:41:46.221Z,101591.75
2022-08-19T03:44:16.996Z,101574.25
2022-08-19T03:46:49.005Z,101563.47
2022-08-19T03:49:18.438Z,101558.56
2022-08-19T03:51:48.720Z,101558.91
2022-08-19T03:54:20.038Z,101565.19
2022-08-19T03:56:52.287Z,101568.31
2022-08-19T03:59:26.691Z,101577.09
2022-08-19T04:01:56.693Z,101569.59
2022-08-19T04:04:29.342Z,101578.38
2022-08-19T04:06:58.848Z,101576.94
2022-08-19T04:09:27.964Z,101572.25
2022-08-19T04:11:59.749Z,101578.66
2022-08-19T04:14:31.503Z,101589.16
2022-08-19T04:17:01.479Z,101603.13
2022-08-19T04:19:33.064Z,101614.09
2022-08-19T04:22:01.716Z,101629.34
2022-08-19T04:24:30.283Z,101629.19
2022-08-19T04:27:01.510Z,101637.34
2022-08-19T04:29:30.492Z,101654.25
2022-08-19T04:32:09.453Z,101664.13
2022-08-19T04:35:02.575Z,101679.97
2022-08-19T04:37:34.996Z,101689.34
2022-08-19T04:40:25.247Z,101692.75
2022-08-19T04:42:55.695Z,101714.34
2022-08-19T04:45:24.670Z,101723.38
2022-08-19T04:48:26.223Z,101733.66
2022-08-19T04:50:46.937Z,101741.63
2022-08-19T04:53:16.331Z,101750.56
2022-08-19T04:55:46.026Z,101762.09
2022-08-19T04:58:17.504Z,101770.22
2022-08-19T05:00:46.323Z,101782.41
2022-08-19T05:03:16.649Z,101790.81
2022-08-19T05:05:45.645Z,101791.34
2022-08-19T05:08:19.469Z,101801.81
2022-08-19T05:11:01.135Z,101807.09
2022-08-19T05:13:31.260Z,101825.25
2022-08-19T05:16:01.820Z,101821.66
2022-08-19T05:18:49.338Z,101818.84
2022-08-19T05:21:38.672Z,101823.09
2022-08-19T05:24:09.829Z,101820.91
2022-08-19T05:26:38.645Z,101826.59
2022-08-19T05:29:10.481Z,101808.28
2022-08-19T05:31:41.985Z,101794.47
2022-08-19T05:34:20.495Z,101793.53
2022-08-19T05:36:50.260Z,101786.97
2022-08-19T05:39:21.329Z,101792.00
2022-08-19T05:41:52.701Z,101794.97
2022-08-19T05:44:23.156Z,101784.06
2022-08-19T05:46:53.968Z,101774.38
2022-08-19T05:49:24.517Z,101770.13
2022-08-19T05:51:53.820Z,101763.09
2022-08-19T05:54:24.040Z,101759.03
2022-08-19T05:56:53.741Z,101752.00
2022-08-19T05:59:25.025Z,101743.41
2022-08-19T06:01:55.304Z,101744.34
2022-08-19T06:04:24.138Z,101740.78
2022-08-19T06:06:54.708Z,101733.94
2022-08-19T06:09:25.153Z,101733.47
2022-08-19T06:11:56.082Z,101731.31
2022-08-19T06:14:29.587Z,101729.91
2022-08-19T06:16:58.918Z,101717.50
2022-08-19T06:19:29.297Z,101711.28
2022-08-19T06:21:59.341Z,101720.22
2022-08-19T06:24:30.473Z,101707.38
2022-08-19T06:27:01.424Z,101700.63
2022-08-19T06:29:33.087Z,101692.19
2022-08-19T06:32:04.049Z,101686.56
2022-08-19T06:34:34.859Z,101689.19
2022-08-19T06:37:04.173Z,101677.72
2022-08-19T06:39:37.302Z,101660.47
2022-08-19T06:42:10.921Z,101637.25
2022-08-19T06:44:48.075Z,101610.28
2022-08-19T06:47:24.037Z,101598.34
2022-08-19T06:50:02.905Z,101581.06
2022-08-19T06:52:34.288Z,101573.94
2022-08-19T06:55:06.402Z,101577.31
2022-08-19T06:57:36.171Z,101580.78
2022-08-19T07:00:13.045Z,101563.28
2022-08-19T07:02:48.080Z,101553.78
2022-08-19T07:05:24.705Z,101541.69
2022-08-19T07:07:53.413Z,101542.19
2022-08-19T07:10:26.586Z,101542.50
2022-08-19T07:12:55.468Z,101538.63
2022-08-19T07:15:25.665Z,101530.09
2022-08-19T07:17:54.238Z,101532.97
2022-08-19T07:20:28.817Z,101529.34
2022-08-19T07:22:58.094Z,101532.59
2022-08-19T07:25:32.469Z,101525.25
2022-08-19T07:28:02.219Z,101523.41
2022-08-19T07:30:32.649Z,101526.84
2022-08-19T07:33:03.755Z,101521.94
2022-08-19T07:35:33.042Z,101518.47
2022-08-19T07:38:04.720Z,101510.06
2022-08-19T07:40:33.309Z,101517.00
2022-08-19T07:43:01.897Z,101517.59
2022-08-19T07:45:30.633Z,101528.13
2022-08-19T07:48:02.027Z,101526.28
2022-08-19T07:50:30.939Z,101514.84
2022-08-19T07:52:59.549Z,101517.56
2022-08-19T07:55:41.039Z,101508.69
2022-08-19T07:58:12.887Z,101504.88
2022-08-19T08:00:43.066Z,101511.81
2022-08-19T08:03:14.160Z,101507.03
2022-08-19T08:06:00.901Z,101515.13
2022-08-19T08:08:48.075Z,101495.91
2022-08-19T08:11:20.462Z,101478.31
2022-08-19T08:14:00.316Z,101466.56
2022-08-19T08:16:32.220Z,101467.41
2022-08-19T08:19:02.348Z,101457.78
2022-08-19T08:21:30.971Z,101454.88
2022-08-19T08:26:29.337Z,101454.25
2022-08-19T08:29:02.485Z,101468.97
2022-08-19T08:31:42.758Z,101468.28
2022-08-19T08:34:15.679Z,101467.56
2022-08-19T08:36:47.303Z,101459.41
2022-08-19T08:39:18.455Z,101459.63
2022-08-19T08:41:55.176Z,101457.16
2022-08-19T08:44:43.842Z,101460.13
2022-08-19T08:47:19.137Z,101471.38
2022-08-19T08:49:56.862Z,101463.84
2022-08-19T08:52:32.104Z,101466.81
2022-08-19T08:55:10.442Z,101460.41
2022-08-19T08:57:44.823Z,101465.50
2022-08-19T09:00:19.616Z,101456.03
2022-08-19T09:02:50.398Z,101456.13
2022-08-19T09:05:22.709Z,101429.78
2022-08-19T09:08:02.639Z,101409.94
2022-08-19T09:10:44.377Z,101415.19
2022-08-19T09:13:24.352Z,101423.19
2022-08-19T09:16:02.003Z,101419.56
2022-08-19T09:18:41.036Z,101433.97
2022-08-19T09:21:11.337Z,101434.63
2022-08-19T09:23:40.521Z,101444.28
2022-08-19T09:26:10.908Z,101439.63
2022-08-19T09:28:43.424Z,101445.94
2022-08-19T09:31:13.089Z,101463.00
2022-08-19T09:33:44.506Z,101447.69
2022-08-19T09:36:31.170Z,101453.38
2022-08-19T09:39:03.884Z,101448.00
2022-08-19T09:41:32.544Z,101440.56
2022-08-19T09:44:02.747Z,101437.78
2022-08-19T09:46:32.582Z,101429.31
2022-08-19T09:49:03.155Z,101394.25
2022-08-19T09:51:36.773Z,101386.81
2022-08-19T09:54:06.753Z,101372.69
2022-08-19T09:56:35.870Z,101365.50
2022-08-19T09:59:05.607Z,101348.94
2022-08-19T10:01:34.832Z,101344.69
2022-08-19T10:04:14.659Z,101341.19
2022-08-19T10:06:53.634Z,101342.22
2022-08-19T10:09:33.727Z,101328.34
2022-08-19T10:12:06.107Z,101335.53
2022-08-19T10:14:35.117Z,101331.06
2022-08-19T10:17:19.247Z,101320.75
2022-08-19T10:19:55.196Z,101313.53
2022-08-19T10:22:26.250Z,101312.94
2022-08-19T10:24:55.165Z,101317.78
2022-08-19T10:27:23.941Z,101318.31
2022-08-19T10:29:55.496Z,101316.63
2022-08-19T10:32:33.713Z,101325.84
2022-08-19T10:35:05.318Z,101320.09
2022-08-19T10:37:36.339Z,101325.78
2022-08-19T10:40:25.245Z,101320.06
2022-08-19T10:42:53.837Z,101312.22
2022-08-19T10:45:23.818Z,101304.03
2022-08-19T10:47:52.848Z,101300.22
2022-08-19T10:50:39.652Z,101297.47
2022-08-19T10:53:10.689Z,101301.19
2022-08-19T10:55:56.975Z,101304.19
2022-08-19T10:58:26.958Z,101314.25
2022-08-19T11:00:57.642Z,101308.34
2022-08-19T11:03:29.038Z,101304.06
2022-08-19T11:06:01.892Z,101315.41
2022-08-19T11:08:32.123Z,101312.50
2022-08-19T11:11:04.106Z,101303.59
2022-08-19T11:13:34.502Z,101297.59
2022-08-19T11:16:07.838Z,101298.19
2022-08-19T11:18:39.496Z,101300.13
2022-08-19T11:21:10.501Z,101295.34
2022-08-19T11:23:40.874Z,101305.06
2022-08-19T11:26:09.636Z,101290.13
2022-08-19T11:28:39.594Z,101297.41
2022-08-19T11:31:13.019Z,101303.78
2022-08-19T11:33:47.227Z,101297.28
2022-08-19T11:36:17.458Z,101289.69
2022-08-19T11:38:49.365Z,101280.16
2022-08-19T11:41:19.753Z,101290.16
2022-08-19T11:43:48.580Z,101277.47
2022-08-19T11:46:18.381Z,101279.75
2022-08-19T11:48:46.960Z,101281.88
2022-08-19T11:51:20.544Z,101273.59
2022-08-19T11:53:51.349Z,101279.38
2022-08-19T11:56:20.881Z,101274.72
2022-08-19T11:58:49.578Z,101276.00
2022-08-19T12:01:21.373Z,101276.09
2022-08-19T12:03:51.854Z,101270.84
2022-08-19T12:06:29.488Z,101268.81
2022-08-19T12:09:01.183Z,101259.41
2022-08-19T12:11:31.317Z,101276.09
2022-08-19T12:14:03.239Z,101274.16
2022-08-19T12:16:33.861Z,101275.44
2022-08-19T12:19:05.163Z,101266.78
2022-08-19T12:21:36.484Z,101271.44
2022-08-19T12:24:08.670Z,101260.97
2022-08-19T12:26:53.329Z,101261.72
2022-08-19T12:29:29.573Z,101265.06
2022-08-19T12:32:02.125Z,101257.41
2022-08-19T12:34:32.164Z,101250.97
2022-08-19T12:37:06.815Z,101269.75
2022-08-19T12:39:42.331Z,101267.50
2022-08-19T12:42:11.429Z,101260.38
2022-08-19T12:44:42.733Z,101258.25
2022-08-19T12:47:14.163Z,101253.53
2022-08-19T12:49:53.597Z,101250.78
2022-08-19T12:52:25.955Z,101258.41
2022-08-19T12:54:58.065Z,101247.47
2022-08-19T12:57:32.942Z,101251.97
2022-08-19T13:00:07.124Z,101235.13
2022-08-19T13:02:38.362Z,101233.41
2022-08-19T13:05:10.938Z,101230.84
2022-08-19T13:07:40.770Z,101242.63
2022-08-19T13:10:13.364Z,101233.69
2022-08-19T13:12:42.823Z,101244.94
2022-08-19T13:15:12.786Z,101247.13
2022-08-19T13:17:44.004Z,101249.63
2022-08-19T13:20:13.563Z,101244.34
2022-08-19T13:22:42.191Z,101244.75
2022-08-19T13:25:13.753Z,101240.38
2022-08-19T13:27:42.380Z,101241.72
2022-08-19T13:30:31.436Z,101235.09
2022-08-19T13:33:18.986Z,101234.09
2022-08-19T13:35:50.198Z,101235.47
2022-08-19T13:38:21.628Z,101234.59
2022-08-19T13:40:53.659Z,101239.25
2022-08-19T13:43:24.146Z,101231.16
2022-08-19T13:45:55.886Z,101226.06
2022-08-19T13:48:26.199Z,101213.25
2022-08-19T13:50:55.317Z,101222.41
2022-08-19T13:53:24.599Z,101217.78
2022-08-19T13:55:55.130Z,101222.53
2022-08-19T13:58:24.433Z,101224.38
2022-08-19T14:00:53.098Z,101221.28
2022-08-19T14:03:21.710Z,101211.84
2022-08-19T14:05:50.365Z,101214.22
2022-08-19T14:08:19.609Z,101213.50
2022-08-19T14:10:49.853Z,101215.44
2022-08-19T14:13:21.997Z,101215.53
2022-08-19T14:15:51.742Z,101209.56
2022-08-19T14:18:21.093Z,101205.38
2022-08-19T14:20:50.108Z,101207.13
2022-08-19T14:23:18.652Z,101205.59
2022-08-19T14:25:47.532Z,101199.09
2022-08-19T14:28:17.708Z,101206.84
2022-08-19T14:30:47.616Z,101202.44
2022-08-19T14:33:16.134Z,101201.31
2022-08-19T14:35:45.705Z,101192.59
2022-08-19T14:38:19.177Z,101203.19
2022-08-19T14:40:58.718Z,101206.81
2022-08-19T14:43:27.238Z,101207.25
2022-08-19T14:45:57.923Z,101214.06
2022-08-19T14:48:29.071Z,101201.72
2022-08-19T14:50:58.494Z,101200.56
2022-08-19T14:53:27.273Z,101202.63
2022-08-19T14:55:55.780Z,101202.44
2022-08-19T14:58:29.783Z,101211.81
2022-08-19T15:01:01.289Z,101212.44
2022-08-19T15:03:30.396Z,101212.06
2022-08-19T15:05:59.110Z,101209.19
2022-08-19T15:08:28.652Z,101222.94
2022-08-19T15:10:57.785Z,101228.88
2022-08-19T15:13:27.829Z,101230.34
2022-08-19T15:15:56.711Z,101225.13
2022-08-19T15:18:27.465Z,101229.66
2022-08-19T15:20:56.452Z,101224.13
2022-08-19T15:23:25.536Z,101228.97
2022-08-19T15:25:55.892Z,101226.16
2022-08-19T15:28:25.604Z,101229.75
2022-08-19T15:30:54.898Z,101232.41
2022-08-19T15:33:23.429Z,101231.34
2022-08-19T15:35:54.155Z,101240.31
2022-08-19T15:38:24.437Z,101234.41
2022-08-19T15:40:53.271Z,101231.91
2022-08-19T15:43:23.231Z,101233.63
2022-08-19T15:45:51.812Z,101228.28
2022-08-19T15:48:20.371Z,101229.28
2022-08-19T15:50:49.315Z,101228.81
2022-08-19T15:53:19.345Z,101225.00
2022-08-19T15:55:48.568Z,101215.25
2022-08-19T15:58:35.158Z,101223.28
2022-08-19T16:01:26.986Z,101224.84
2022-08-19T16:04:15.834Z,101224.00
2022-08-19T16:06:46.863Z,101221.09
2022-08-19T16:09:20.311Z,101226.53
2022-08-19T16:11:56.711Z,101219.88
2022-08-19T16:14:26.985Z,101220.97
2022-08-19T16:16:56.827Z,101219.34
2022-08-19T16:19:26.151Z,101218.41
2022-08-19T16:21:57.100Z,101211.09
2022-08-19T16:24:29.452Z,101202.13
2022-08-19T16:26:58.804Z,101218.28
2022-08-19T16:29:34.572Z,101221.50
2022-08-19T16:32:10.993Z,101224.56
2022-08-19T16:34:40.229Z,101230.22
2022-08-19T16:37:10.202Z,101224.91
2022-08-19T16:39:40.971Z,101227.38
2022-08-19T16:42:13.995Z,101226.72
2022-08-19T16:44:46.099Z,101232.69
2022-08-19T16:47:16.528Z,101230.94
2022-08-19T16:49:54.366Z,101235.19
2022-08-19T16:52:26.457Z,101240.94
2022-08-19T16:54:56.774Z,101234.31
2022-08-19T16:57:25.693Z,101232.78
2022-08-19T16:59:54.699Z,101231.22
2022-08-19T17:02:29.716Z,101236.66
2022-08-19T17:04:59.530Z,101242.47
2022-08-19T17:07:28.741Z,101239.91
2022-08-19T17:09:58.635Z,101249.22
2022-08-19T17:12:31.717Z,101249.56
2022-08-19T17:15:02.400Z,101255.31
2022-08-19T17:17:32.846Z,101256.97
2022-08-19T17:20:03.593Z,101251.13
2022-08-19T17:22:32.413Z,101252.97
2022-08-19T17:25:02.414Z,101248.59
2022-08-19T17:27:31.601Z,101249.63
2022-08-19T17:30:02.649Z,101253.75
2022-08-19T17:32:35.153Z,101258.00
2022-08-19T17:35:05.443Z,101259.41
2022-08-19T17:37:34.989Z,101257.06
2022-08-19T17:40:07.091Z,101252.16
2022-08-19T17:42:36.553Z,101259.97
2022-08-19T17:45:06.023Z,101251.09
2022-08-19T17:47:34.569Z,101255.59
2022-08-19T17:50:03.353Z,101256.19
2022-08-19T17:52:31.963Z,101249.00
2022-08-19T17:55:00.502Z,101241.56
2022-08-19T17:57:30.599Z,101242.00
2022-08-19T17:59:59.551Z,101248.56
2022-08-19T18:02:28.167Z,101243.69
2022-08-19T18:04:58.621Z,101239.31
2022-08-19T18:07:27.264Z,101240.19
2022-08-19T18:09:55.935Z,101241.63
2022-08-19T18:12:27.028Z,101237.94
2022-08-19T18:14:58.748Z,101235.75
2022-08-19T18:17:27.425Z,101235.22
2022-08-19T18:19:55.950Z,101237.75
2022-08-19T18:22:28.134Z,101234.88
2022-08-19T18:24:57.457Z,101244.63
2022-08-19T18:27:27.021Z,101241.78
2022-08-19T18:29:59.242Z,101245.59
2022-08-19T18:32:30.401Z,101244.06
2022-08-19T18:35:00.928Z,101238.84
2022-08-19T18:37:30.334Z,101248.31
2022-08-19T18:40:16.561Z,101244.63
2022-08-19T18:43:18.324Z,101253.44
2022-08-19T18:46:07.072Z,101244.88
2022-08-19T18:48:54.279Z,101243.38
2022-08-19T18:51:28.111Z,101245.41
2022-08-19T18:53:58.865Z,101254.34
2022-08-19T18:56:31.762Z,101252.38
2022-08-19T19:10:35.469Z,101247.28
2022-08-19T19:13:04.589Z,101251.38
2022-08-19T19:15:33.686Z,101254.03
2022-08-19T19:18:02.385Z,101260.81
2022-08-19T19:20:35.304Z,101255.38
2022-08-19T19:23:05.515Z,101259.28
2022-08-19T19:25:50.050Z,101253.84
2022-08-19T19:28:23.873Z,101262.13
2022-08-19T19:30:54.239Z,101266.28
2022-08-19T19:33:22.862Z,101259.28
2022-08-19T19:35:51.635Z,101263.97
2022-08-19T19:38:20.327Z,101265.75
2022-08-19T19:40:50.134Z,101278.97
2022-08-19T19:43:19.125Z,101278.44
2022-08-19T19:45:49.348Z,101282.06
2022-08-19T19:48:17.983Z,101284.09
2022-08-19T19:50:56.050Z,101284.63
2022-08-19T19:53:26.817Z,101293.19
2022-08-19T19:55:58.862Z,101297.56
2022-08-19T19:58:29.004Z,101297.81
2022-08-19T20:00:59.611Z,101314.09
2022-08-19T20:03:30.011Z,101311.25
2022-08-19T20:06:00.337Z,101309.69
2022-08-19T20:08:47.320Z,101301.66
2022-08-19T20:11:31.748Z,101298.03
2022-08-19T20:14:02.820Z,101295.44
2022-08-19T20:16:32.336Z,101295.19
2022-08-19T20:19:02.632Z,101297.16
2022-08-19T20:21:33.278Z,101308.25
2022-08-19T20:24:08.971Z,101313.16
2022-08-19T20:26:40.065Z,101309.09
2022-08-19T20:29:29.242Z,101311.88
2022-08-19T20:31:59.494Z,101324.78
2022-08-19T20:34:28.972Z,101326.28
2022-08-19T20:36:57.622Z,101337.88
2022-08-19T20:39:26.379Z,101335.31
2022-08-19T20:41:56.674Z,101342.00
2022-08-19T20:44:25.863Z,101339.94
2022-08-19T20:46:57.555Z,101345.63
2022-08-19T20:49:27.821Z,101337.84
2022-08-19T20:51:57.916Z,101349.97
2022-08-19T20:54:27.396Z,101351.94
2022-08-19T20:56:57.544Z,101350.56
2022-08-19T20:59:27.122Z,101368.53
2022-08-19T21:01:57.523Z,101367.97
2022-08-19T21:04:27.606Z,101365.03
2022-08-19T21:06:56.440Z,101378.25
2022-08-19T21:09:25.506Z,101371.69
2022-08-19T21:11:54.419Z,101373.38
2022-08-19T21:14:24.582Z,101376.50
2022-08-19T21:16:53.698Z,101379.59
2022-08-19T21:19:24.030Z,101376.13
2022-08-19T21:21:53.369Z,101378.25
2022-08-19T21:24:26.302Z,101382.78
2022-08-19T21:27:00.900Z,101374.38
2022-08-19T21:29:32.096Z,101372.84
2022-08-19T21:32:01.676Z,101376.16
2022-08-19T21:34:30.238Z,101380.00
2022-08-19T21:36:58.811Z,101386.59
2022-08-19T21:39:27.607Z,101387.22
2022-08-19T21:41:56.481Z,101386.66
2022-08-19T21:44:25.242Z,101387.84
2022-08-19T21:46:55.245Z,101392.66
2022-08-19T21:49:24.098Z,101396.06
2022-08-19T21:51:53.894Z,101400.06
2022-08-19T21:54:22.315Z,101405.59
2022-08-19T21:56:51.403Z,101387.22
2022-08-19T21:59:20.925Z,101391.47
2022-08-19T22:01:58.816Z,101382.66
2022-08-19T22:04:36.196Z,101382.50
2022-08-19T22:07:04.908Z,101387.38
2022-08-19T22:09:33.795Z,101379.28
2022-08-19T22:12:02.526Z,101381.94
2022-08-19T22:14:31.270Z,101386.75
2022-08-19T22:17:01.049Z,101386.47
2022-08-19T22:19:30.335Z,101381.56
2022-08-19T22:22:00.363Z,101387.66
2022-08-19T22:24:28.985Z,101390.06
2022-08-19T22:26:57.586Z,101396.16
2022-08-19T22:29:33.814Z,101391.25
2022-08-19T22:32:23.001Z,101391.47
2022-08-19T22:34:51.939Z,101374.63
2022-08-19T22:37:22.768Z,101378.94
2022-08-19T22:39:51.511Z,101392.66
2022-08-19T22:42:20.825Z,101393.84
2022-08-19T22:44:49.835Z,101390.16
2022-08-19T22:47:19.347Z,101392.22
2022-08-19T22:49:48.635Z,101394.19
2022-08-19T22:52:19.851Z,101394.75
2022-08-19T22:54:52.664Z,101390.84
2022-08-19T22:57:22.480Z,101401.09
2022-08-19T22:59:55.599Z,101404.00
2022-08-19T23:02:32.528Z,101409.59
2022-08-19T23:05:02.446Z,101400.56
2022-08-19T23:07:31.489Z,101406.31
2022-08-19T23:10:01.649Z,101400.34
2022-08-19T23:12:32.450Z,101398.91
2022-08-19T23:15:04.006Z,101394.56
2022-08-19T23:17:33.662Z,101391.44
2022-08-19T23:20:02.712Z,101395.94
2022-08-19T23:22:31.151Z,101398.69
2022-08-19T23:25:05.433Z,101397.91
2022-08-19T23:27:51.638Z,101403.28
2022-08-19T23:30:29.505Z,101391.66
2022-08-19T23:33:00.916Z,101391.31
2022-08-19T23:35:34.756Z,101397.88
2022-08-19T23:38:04.894Z,101397.59
2022-08-19T23:40:36.115Z,101396.75
2022-08-19T23:43:07.960Z,101408.09
2022-08-19T23:45:39.859Z,101410.84
2022-08-19T23:48:10.086Z,101411.59
2022-08-19T23:50:41.230Z,101408.09
2022-08-19T23:53:13.258Z,101401.41
2022-08-19T23:55:46.639Z,101400.41
2022-08-19T23:58:18.205Z,101404.97
